sensor_id;sensor_type;location;lat;lon;timestamp;temperature;humidity
84176;DHT22;74306;40.114;18.304;2024-02-04T00:00:34;8.80;78.70
84176;DHT22;74306;40.114;18.304;2024-02-04T00:03:05;8.80;78.70
84176;DHT22;74306;40.114;18.304;2024-02-04T00:05:34;8.80;78.80
84176;DHT22;74306;40.114;18.304;2024-02-04T00:08:04;8.80;78.80
84176;DHT22;74306;40.114;18.304;2024-02-04T00:10:33;8.80;78.70
84176;DHT22;74306;40.114;18.304;2024-02-04T00:13:03;8.80;78.80
84176;DHT22;74306;40.114;18.304;2024-02-04T00:15:33;8.80;78.70
84176;DHT22;74306;40.114;18.304;2024-02-04T00:18:03;8.80;78.80
84176;DHT22;74306;40.114;18.304;2024-02-04T00:20:32;8.70;78.80
84176;DHT22;74306;40.114;18.304;2024-02-04T00:23:02;8.70;78.80
84176;DHT22;74306;40.114;18.304;2024-02-04T00:25:31;8.70;78.60
84176;DHT22;74306;40.114;18.304;2024-02-04T00:28:01;8.60;78.70
84176;DHT22;74306;40.114;18.304;2024-02-04T00:30:31;8.60;78.70
84176;DHT22;74306;40.114;18.304;2024-02-04T00:33:01;8.50;79.00
84176;DHT22;74306;40.114;18.304;2024-02-04T00:35:31;8.40;79.10
84176;DHT22;74306;40.114;18.304;2024-02-04T00:38:00;8.50;78.90
84176;DHT22;74306;40.114;18.304;2024-02-04T00:40:31;8.50;78.80
84176;DHT22;74306;40.114;18.304;2024-02-04T00:43:01;8.60;78.70
84176;DHT22;74306;40.114;18.304;2024-02-04T00:45:31;8.40;78.80
84176;DHT22;74306;40.114;18.304;2024-02-04T00:48:02;8.40;78.90
84176;DHT22;74306;40.114;18.304;2024-02-04T00:50:32;8.40;78.70
84176;DHT22;74306;40.114;18.304;2024-02-04T00:53:02;8.40;78.70
84176;DHT22;74306;40.114;18.304;2024-02-04T00:55:31;8.40;78.90
84176;DHT22;74306;40.114;18.304;2024-02-04T00:58:00;8.40;78.80
84176;DHT22;74306;40.114;18.304;2024-02-04T01:00:30;8.40;78.70
84176;DHT22;74306;40.114;18.304;2024-02-04T01:03:01;8.40;79.00
84176;DHT22;74306;40.114;18.304;2024-02-04T01:05:30;8.40;78.70
84176;DHT22;74306;40.114;18.304;2024-02-04T01:08:00;8.40;78.60
84176;DHT22;74306;40.114;18.304;2024-02-04T01:10:29;8.40;78.90
84176;DHT22;74306;40.114;18.304;2024-02-04T01:12:59;8.40;78.80
84176;DHT22;74306;40.114;18.304;2024-02-04T01:15:28;8.30;78.80
84176;DHT22;74306;40.114;18.304;2024-02-04T01:17:58;8.30;79.00
84176;DHT22;74306;40.114;18.304;2024-02-04T01:20:28;8.30;79.10
84176;DHT22;74306;40.114;18.304;2024-02-04T01:22:58;8.20;79.20
84176;DHT22;74306;40.114;18.304;2024-02-04T01:25:27;8.10;79.80
84176;DHT22;74306;40.114;18.304;2024-02-04T01:27:56;8.10;80.00
84176;DHT22;74306;40.114;18.304;2024-02-04T01:30:26;8.10;79.80
84176;DHT22;74306;40.114;18.304;2024-02-04T01:32:56;8.00;80.20
84176;DHT22;74306;40.114;18.304;2024-02-04T01:35:27;8.00;80.60
84176;DHT22;74306;40.114;18.304;2024-02-04T01:37:56;8.00;80.60
84176;DHT22;74306;40.114;18.304;2024-02-04T01:40:26;8.00;80.20
84176;DHT22;74306;40.114;18.304;2024-02-04T01:42:56;8.00;79.90
84176;DHT22;74306;40.114;18.304;2024-02-04T01:45:26;8.00;80.10
84176;DHT22;74306;40.114;18.304;2024-02-04T01:47:55;8.10;79.90
84176;DHT22;74306;40.114;18.304;2024-02-04T01:50:25;8.20;79.60
84176;DHT22;74306;40.114;18.304;2024-02-04T01:52:56;8.10;79.40
84176;DHT22;74306;40.114;18.304;2024-02-04T01:55:25;8.20;79.80
84176;DHT22;74306;40.114;18.304;2024-02-04T01:57:55;8.10;79.50
84176;DHT22;74306;40.114;18.304;2024-02-04T02:00:25;8.10;79.80
84176;DHT22;74306;40.114;18.304;2024-02-04T02:02:56;8.20;79.60
84176;DHT22;74306;40.114;18.304;2024-02-04T02:05:26;8.20;79.50
84176;DHT22;74306;40.114;18.304;2024-02-04T02:07:58;8.20;79.60
84176;DHT22;74306;40.114;18.304;2024-02-04T02:10:27;8.20;79.60
84176;DHT22;74306;40.114;18.304;2024-02-04T02:13:00;8.10;79.50
84176;DHT22;74306;40.114;18.304;2024-02-04T02:15:36;8.10;79.20
84176;DHT22;74306;40.114;18.304;2024-02-04T02:18:12;8.10;79.00
84176;DHT22;74306;40.114;18.304;2024-02-04T02:21:15;8.00;78.60
84176;DHT22;74306;40.114;18.304;2024-02-04T02:24:03;8.00;78.50
84176;DHT22;74306;40.114;18.304;2024-02-04T02:26:34;7.90;78.20
84176;DHT22;74306;40.114;18.304;2024-02-04T02:29:06;7.80;78.10
84176;DHT22;74306;40.114;18.304;2024-02-04T02:31:37;7.80;78.20
84176;DHT22;74306;40.114;18.304;2024-02-04T02:34:11;7.80;78.10
84176;DHT22;74306;40.114;18.304;2024-02-04T02:36:45;7.80;77.90
84176;DHT22;74306;40.114;18.304;2024-02-04T02:39:18;7.80;78.00
84176;DHT22;74306;40.114;18.304;2024-02-04T02:41:50;7.80;77.80
84176;DHT22;74306;40.114;18.304;2024-02-04T02:44:24;7.80;77.80
84176;DHT22;74306;40.114;18.304;2024-02-04T02:46:54;7.70;77.70
84176;DHT22;74306;40.114;18.304;2024-02-04T02:49:26;7.70;77.70
84176;DHT22;74306;40.114;18.304;2024-02-04T02:51:55;7.60;77.80
84176;DHT22;74306;40.114;18.304;2024-02-04T02:54:25;7.60;77.90
84176;DHT22;74306;40.114;18.304;2024-02-04T02:56:55;7.60;77.90
84176;DHT22;74306;40.114;18.304;2024-02-04T02:59:25;7.50;77.90
84176;DHT22;74306;40.114;18.304;2024-02-04T03:01:54;7.60;77.70
84176;DHT22;74306;40.114;18.304;2024-02-04T03:04:24;7.50;77.90
84176;DHT22;74306;40.114;18.304;2024-02-04T03:06:54;7.40;78.00
84176;DHT22;74306;40.114;18.304;2024-02-04T03:09:23;7.40;78.10
84176;DHT22;74306;40.114;18.304;2024-02-04T03:11:52;7.30;77.70
84176;DHT22;74306;40.114;18.304;2024-02-04T03:14:23;7.20;78.10
84176;DHT22;74306;40.114;18.304;2024-02-04T03:16:53;7.10;77.80
84176;DHT22;74306;40.114;18.304;2024-02-04T03:19:22;7.00;78.10
84176;DHT22;74306;40.114;18.304;2024-02-04T03:21:52;7.00;77.90
84176;DHT22;74306;40.114;18.304;2024-02-04T03:24:21;7.10;78.20
84176;DHT22;74306;40.114;18.304;2024-02-04T03:26:51;7.00;78.00
84176;DHT22;74306;40.114;18.304;2024-02-04T03:29:20;7.00;77.90
84176;DHT22;74306;40.114;18.304;2024-02-04T03:31:51;6.90;78.00
84176;DHT22;74306;40.114;18.304;2024-02-04T03:34:21;6.90;78.00
84176;DHT22;74306;40.114;18.304;2024-02-04T03:36:50;6.90;77.90
84176;DHT22;74306;40.114;18.304;2024-02-04T03:39:20;6.90;78.00
84176;DHT22;74306;40.114;18.304;2024-02-04T03:41:49;6.90;77.90
84176;DHT22;74306;40.114;18.304;2024-02-04T03:44:20;6.90;77.90
84176;DHT22;74306;40.114;18.304;2024-02-04T03:46:51;6.90;77.90
84176;DHT22;74306;40.114;18.304;2024-02-04T03:49:21;7.00;78.00
84176;DHT22;74306;40.114;18.304;2024-02-04T03:51:50;7.00;77.80
84176;DHT22;74306;40.114;18.304;2024-02-04T03:54:20;7.00;77.80
84176;DHT22;74306;40.114;18.304;2024-02-04T03:56:50;7.00;77.60
84176;DHT22;74306;40.114;18.304;2024-02-04T03:59:19;7.00;77.20
84176;DHT22;74306;40.114;18.304;2024-02-04T04:01:50;7.00;77.20
84176;DHT22;74306;40.114;18.304;2024-02-04T04:04:21;7.00;77.00
84176;DHT22;74306;40.114;18.304;2024-02-04T04:06:50;6.90;77.10
84176;DHT22;74306;40.114;18.304;2024-02-04T04:09:20;6.90;76.90
84176;DHT22;74306;40.114;18.304;2024-02-04T04:11:49;6.90;76.80
84176;DHT22;74306;40.114;18.304;2024-02-04T04:14:18;6.90;76.50
84176;DHT22;74306;40.114;18.304;2024-02-04T04:16:48;6.80;76.50
84176;DHT22;74306;40.114;18.304;2024-02-04T04:19:19;6.70;76.60
84176;DHT22;74306;40.114;18.304;2024-02-04T04:21:48;6.80;76.60
84176;DHT22;74306;40.114;18.304;2024-02-04T04:24:17;6.80;76.40
84176;DHT22;74306;40.114;18.304;2024-02-04T04:26:50;6.70;76.10
84176;DHT22;74306;40.114;18.304;2024-02-04T04:29:19;6.70;76.20
84176;DHT22;74306;40.114;18.304;2024-02-04T04:31:48;6.70;76.10
84176;DHT22;74306;40.114;18.304;2024-02-04T04:34:21;6.70;76.00
84176;DHT22;74306;40.114;18.304;2024-02-04T04:36:50;6.70;76.10
84176;DHT22;74306;40.114;18.304;2024-02-04T04:39:19;6.80;76.00
84176;DHT22;74306;40.114;18.304;2024-02-04T04:41:49;6.80;76.00
84176;DHT22;74306;40.114;18.304;2024-02-04T04:44:18;6.70;75.90
84176;DHT22;74306;40.114;18.304;2024-02-04T04:46:47;6.70;76.10
84176;DHT22;74306;40.114;18.304;2024-02-04T04:49:17;6.70;76.00
84176;DHT22;74306;40.114;18.304;2024-02-04T04:51:48;6.80;76.00
84176;DHT22;74306;40.114;18.304;2024-02-04T04:54:17;6.80;76.00
84176;DHT22;74306;40.114;18.304;2024-02-04T04:56:46;6.80;75.80
84176;DHT22;74306;40.114;18.304;2024-02-04T04:59:16;6.80;75.90
84176;DHT22;74306;40.114;18.304;2024-02-04T05:01:46;6.70;76.00
84176;DHT22;74306;40.114;18.304;2024-02-04T05:04:17;6.80;76.10
84176;DHT22;74306;40.114;18.304;2024-02-04T05:06:49;6.80;76.00
84176;DHT22;74306;40.114;18.304;2024-02-04T05:09:18;6.80;75.90
84176;DHT22;74306;40.114;18.304;2024-02-04T05:11:48;6.80;75.80
84176;DHT22;74306;40.114;18.304;2024-02-04T05:14:17;6.80;75.70
84176;DHT22;74306;40.114;18.304;2024-02-04T05:16:46;6.70;75.60
84176;DHT22;74306;40.114;18.304;2024-02-04T05:19:16;6.70;75.60
84176;DHT22;74306;40.114;18.304;2024-02-04T05:21:48;6.80;75.40
84176;DHT22;74306;40.114;18.304;2024-02-04T05:24:17;6.70;75.10
84176;DHT22;74306;40.114;18.304;2024-02-04T05:26:46;6.60;75.00
84176;DHT22;74306;40.114;18.304;2024-02-04T05:29:16;6.50;75.00
84176;DHT22;74306;40.114;18.304;2024-02-04T05:31:45;6.50;75.10
84176;DHT22;74306;40.114;18.304;2024-02-04T05:34:15;6.40;75.40
84176;DHT22;74306;40.114;18.304;2024-02-04T05:36:44;6.50;75.20
84176;DHT22;74306;40.114;18.304;2024-02-04T05:39:15;6.50;75.20
84176;DHT22;74306;40.114;18.304;2024-02-04T05:41:45;6.50;75.30
84176;DHT22;74306;40.114;18.304;2024-02-04T05:44:14;6.50;75.10
84176;DHT22;74306;40.114;18.304;2024-02-04T05:46:44;6.50;75.30
84176;DHT22;74306;40.114;18.304;2024-02-04T05:49:13;6.50;75.40
84176;DHT22;74306;40.114;18.304;2024-02-04T05:51:43;6.60;75.30
84176;DHT22;74306;40.114;18.304;2024-02-04T05:54:14;6.60;74.90
84176;DHT22;74306;40.114;18.304;2024-02-04T05:56:44;6.60;74.70
84176;DHT22;74306;40.114;18.304;2024-02-04T05:59:13;6.50;75.10
84176;DHT22;74306;40.114;18.304;2024-02-04T06:01:46;6.50;75.30
84176;DHT22;74306;40.114;18.304;2024-02-04T06:04:15;6.60;75.50
84176;DHT22;74306;40.114;18.304;2024-02-04T06:06:44;6.60;75.70
84176;DHT22;74306;40.114;18.304;2024-02-04T06:09:17;6.70;75.50
84176;DHT22;74306;40.114;18.304;2024-02-04T06:11:46;6.70;75.60
84176;DHT22;74306;40.114;18.304;2024-02-04T06:14:16;6.80;75.20
84176;DHT22;74306;40.114;18.304;2024-02-04T06:16:45;6.80;75.40
84176;DHT22;74306;40.114;18.304;2024-02-04T06:19:14;6.80;75.40
84176;DHT22;74306;40.114;18.304;2024-02-04T06:21:44;6.90;75.30
84176;DHT22;74306;40.114;18.304;2024-02-04T06:24:13;7.00;75.10
84176;DHT22;74306;40.114;18.304;2024-02-04T06:26:44;7.00;75.00
84176;DHT22;74306;40.114;18.304;2024-02-04T06:29:13;7.00;74.80
84176;DHT22;74306;40.114;18.304;2024-02-04T06:31:44;7.00;74.80
84176;DHT22;74306;40.114;18.304;2024-02-04T06:34:14;7.20;74.60
84176;DHT22;74306;40.114;18.304;2024-02-04T06:36:43;7.20;74.20
84176;DHT22;74306;40.114;18.304;2024-02-04T06:39:13;7.20;74.20
84176;DHT22;74306;40.114;18.304;2024-02-04T06:41:44;7.30;73.90
84176;DHT22;74306;40.114;18.304;2024-02-04T06:44:13;7.30;73.90
84176;DHT22;74306;40.114;18.304;2024-02-04T06:46:43;7.30;73.80
84176;DHT22;74306;40.114;18.304;2024-02-04T06:49:12;7.40;73.60
84176;DHT22;74306;40.114;18.304;2024-02-04T06:51:46;7.30;73.60
84176;DHT22;74306;40.114;18.304;2024-02-04T06:54:15;7.40;73.60
84176;DHT22;74306;40.114;18.304;2024-02-04T06:56:46;7.40;73.80
84176;DHT22;74306;40.114;18.304;2024-02-04T06:59:15;7.40;73.80
84176;DHT22;74306;40.114;18.304;2024-02-04T07:01:45;7.50;74.00
84176;DHT22;74306;40.114;18.304;2024-02-04T07:04:14;7.40;74.20
84176;DHT22;74306;40.114;18.304;2024-02-04T07:06:43;7.50;74.40
84176;DHT22;74306;40.114;18.304;2024-02-04T07:09:12;7.60;74.30
84176;DHT22;74306;40.114;18.304;2024-02-04T07:11:42;7.60;74.10
84176;DHT22;74306;40.114;18.304;2024-02-04T07:14:13;7.70;74.10
84176;DHT22;74306;40.114;18.304;2024-02-04T07:16:42;7.80;73.90
84176;DHT22;74306;40.114;18.304;2024-02-04T07:19:11;7.80;74.00
84176;DHT22;74306;40.114;18.304;2024-02-04T07:21:41;7.80;74.30
84176;DHT22;74306;40.114;18.304;2024-02-04T07:24:12;8.00;74.20
84176;DHT22;74306;40.114;18.304;2024-02-04T07:26:41;8.10;74.00
84176;DHT22;74306;40.114;18.304;2024-02-04T07:29:12;8.10;74.00
84176;DHT22;74306;40.114;18.304;2024-02-04T07:31:42;8.20;74.20
84176;DHT22;74306;40.114;18.304;2024-02-04T07:34:11;8.30;74.20
84176;DHT22;74306;40.114;18.304;2024-02-04T07:36:40;8.40;74.20
84176;DHT22;74306;40.114;18.304;2024-02-04T07:39:10;8.50;74.00
84176;DHT22;74306;40.114;18.304;2024-02-04T07:41:39;8.60;73.70
84176;DHT22;74306;40.114;18.304;2024-02-04T07:44:08;8.80;73.60
84176;DHT22;74306;40.114;18.304;2024-02-04T07:46:39;8.90;73.50
84176;DHT22;74306;40.114;18.304;2024-02-04T07:49:08;9.10;73.50
84176;DHT22;74306;40.114;18.304;2024-02-04T07:51:38;9.20;73.40
84176;DHT22;74306;40.114;18.304;2024-02-04T07:54:07;9.40;73.40
84176;DHT22;74306;40.114;18.304;2024-02-04T07:56:38;9.60;73.20
84176;DHT22;74306;40.114;18.304;2024-02-04T07:59:07;9.80;73.20
84176;DHT22;74306;40.114;18.304;2024-02-04T08:01:36;9.90;72.90
84176;DHT22;74306;40.114;18.304;2024-02-04T08:04:07;10.10;72.90
84176;DHT22;74306;40.114;18.304;2024-02-04T08:06:38;10.30;72.80
84176;DHT22;74306;40.114;18.304;2024-02-04T08:09:08;10.40;72.80
84176;DHT22;74306;40.114;18.304;2024-02-04T08:11:37;10.60;72.60
84176;DHT22;74306;40.114;18.304;2024-02-04T08:14:06;10.90;72.60
84176;DHT22;74306;40.114;18.304;2024-02-04T08:16:36;11.10;72.40
84176;DHT22;74306;40.114;18.304;2024-02-04T08:19:07;11.30;72.20
84176;DHT22;74306;40.114;18.304;2024-02-04T08:21:37;11.40;72.10
84176;DHT22;74306;40.114;18.304;2024-02-04T08:24:06;11.60;72.20
84176;DHT22;74306;40.114;18.304;2024-02-04T08:26:36;11.80;72.30
84176;DHT22;74306;40.114;18.304;2024-02-04T08:29:05;12.00;72.00
84176;DHT22;74306;40.114;18.304;2024-02-04T08:31:35;12.20;71.80
84176;DHT22;74306;40.114;18.304;2024-02-04T08:34:04;12.40;71.60
84176;DHT22;74306;40.114;18.304;2024-02-04T08:36:36;12.50;71.60
84176;DHT22;74306;40.114;18.304;2024-02-04T08:39:05;12.80;71.50
84176;DHT22;74306;40.114;18.304;2024-02-04T08:41:35;13.00;71.80
84176;DHT22;74306;40.114;18.304;2024-02-04T08:44:04;13.30;71.20
84176;DHT22;74306;40.114;18.304;2024-02-04T08:46:34;13.50;71.70
84176;DHT22;74306;40.114;18.304;2024-02-04T08:49:03;13.80;70.90
84176;DHT22;74306;40.114;18.304;2024-02-04T08:51:32;14.20;70.10
84176;DHT22;74306;40.114;18.304;2024-02-04T08:54:03;14.50;69.30
84176;DHT22;74306;40.114;18.304;2024-02-04T08:56:34;14.70;68.40
84176;DHT22;74306;40.114;18.304;2024-02-04T08:59:03;14.90;67.10
84176;DHT22;74306;40.114;18.304;2024-02-04T09:01:34;15.00;65.80
84176;DHT22;74306;40.114;18.304;2024-02-04T09:04:04;15.20;65.10
84176;DHT22;74306;40.114;18.304;2024-02-04T09:06:41;15.40;65.20
84176;DHT22;74306;40.114;18.304;2024-02-04T09:09:15;15.50;64.70
84176;DHT22;74306;40.114;18.304;2024-02-04T09:11:45;15.70;63.80
84176;DHT22;74306;40.114;18.304;2024-02-04T09:14:14;15.80;63.90
84176;DHT22;74306;40.114;18.304;2024-02-04T09:16:43;15.70;64.30
84176;DHT22;74306;40.114;18.304;2024-02-04T09:19:13;15.50;65.20
84176;DHT22;74306;40.114;18.304;2024-02-04T09:21:42;15.40;65.10
84176;DHT22;74306;40.114;18.304;2024-02-04T09:24:12;15.30;64.70
84176;DHT22;74306;40.114;18.304;2024-02-04T09:26:43;15.40;63.70
84176;DHT22;74306;40.114;18.304;2024-02-04T09:29:12;15.50;63.70
84176;DHT22;74306;40.114;18.304;2024-02-04T09:31:42;15.80;61.70
84176;DHT22;74306;40.114;18.304;2024-02-04T09:34:11;15.90;61.30
84176;DHT22;74306;40.114;18.304;2024-02-04T09:36:43;16.00;61.10
84176;DHT22;74306;40.114;18.304;2024-02-04T09:39:12;16.00;60.60
84176;DHT22;74306;40.114;18.304;2024-02-04T09:41:46;16.10;60.50
84176;DHT22;74306;40.114;18.304;2024-02-04T09:44:15;15.90;61.20
84176;DHT22;74306;40.114;18.304;2024-02-04T09:46:46;15.80;61.90
84176;DHT22;74306;40.114;18.304;2024-02-04T09:49:15;15.80;62.00
84176;DHT22;74306;40.114;18.304;2024-02-04T09:51:45;15.60;62.50
84176;DHT22;74306;40.114;18.304;2024-02-04T09:54:15;15.40;63.50
84176;DHT22;74306;40.114;18.304;2024-02-04T09:56:47;15.70;62.90
84176;DHT22;74306;40.114;18.304;2024-02-04T09:59:19;15.70;63.10
84176;DHT22;74306;40.114;18.304;2024-02-04T10:01:51;16.10;62.40
84176;DHT22;74306;40.114;18.304;2024-02-04T10:04:21;16.20;62.40
84176;DHT22;74306;40.114;18.304;2024-02-04T10:06:50;16.20;62.10
84176;DHT22;74306;40.114;18.304;2024-02-04T10:09:20;16.30;62.20
84176;DHT22;74306;40.114;18.304;2024-02-04T10:11:52;16.40;61.70
84176;DHT22;74306;40.114;18.304;2024-02-04T10:14:21;16.60;61.70
84176;DHT22;74306;40.114;18.304;2024-02-04T10:16:53;17.30;60.70
84176;DHT22;74306;40.114;18.304;2024-02-04T10:19:24;18.00;58.40
84176;DHT22;74306;40.114;18.304;2024-02-04T10:22:00;18.70;57.20
84176;DHT22;74306;40.114;18.304;2024-02-04T10:24:31;19.50;55.10
84176;DHT22;74306;40.114;18.304;2024-02-04T10:27:02;20.20;53.30
84176;DHT22;74306;40.114;18.304;2024-02-04T10:29:33;20.10;48.60
84176;DHT22;74306;40.114;18.304;2024-02-04T10:32:03;20.70;47.00
84176;DHT22;74306;40.114;18.304;2024-02-04T10:34:35;20.40;44.90
84176;DHT22;74306;40.114;18.304;2024-02-04T10:37:05;20.60;46.20
84176;DHT22;74306;40.114;18.304;2024-02-04T10:39:34;21.30;45.10
84176;DHT22;74306;40.114;18.304;2024-02-04T10:42:07;22.10;43.10
84176;DHT22;74306;40.114;18.304;2024-02-04T10:44:36;22.50;42.30
84176;DHT22;74306;40.114;18.304;2024-02-04T10:47:14;23.30;41.00
84176;DHT22;74306;40.114;18.304;2024-02-04T10:49:50;23.80;38.80
84176;DHT22;74306;40.114;18.304;2024-02-04T10:52:22;23.60;38.40
84176;DHT22;74306;40.114;18.304;2024-02-04T10:54:53;24.00;38.90
84176;DHT22;74306;40.114;18.304;2024-02-04T10:57:24;24.90;37.20
84176;DHT22;74306;40.114;18.304;2024-02-04T10:59:55;25.00;37.00
84176;DHT22;74306;40.114;18.304;2024-02-04T11:02:24;24.10;38.20
84176;DHT22;74306;40.114;18.304;2024-02-04T11:04:54;23.70;39.70
84176;DHT22;74306;40.114;18.304;2024-02-04T11:07:25;24.00;38.00
84176;DHT22;74306;40.114;18.304;2024-02-04T11:09:56;24.40;36.70
84176;DHT22;74306;40.114;18.304;2024-02-04T11:12:29;24.40;34.90
84176;DHT22;74306;40.114;18.304;2024-02-04T11:15:03;25.10;34.80
84176;DHT22;74306;40.114;18.304;2024-02-04T11:17:55;25.90;33.30
84176;DHT22;74306;40.114;18.304;2024-02-04T11:20:42;26.60;31.30
84176;DHT22;74306;40.114;18.304;2024-02-04T11:23:32;26.80;30.60
84176;DHT22;74306;40.114;18.304;2024-02-04T11:26:05;27.10;30.30
84176;DHT22;74306;40.114;18.304;2024-02-04T11:28:36;27.20;29.50
84176;DHT22;74306;40.114;18.304;2024-02-04T11:31:14;27.10;28.30
84176;DHT22;74306;40.114;18.304;2024-02-04T11:33:45;26.80;30.30
84176;DHT22;74306;40.114;18.304;2024-02-04T11:36:15;27.60;29.70
84176;DHT22;74306;40.114;18.304;2024-02-04T11:38:48;27.80;29.50
84176;DHT22;74306;40.114;18.304;2024-02-04T11:41:22;28.60;28.50
84176;DHT22;74306;40.114;18.304;2024-02-04T11:43:55;28.50;28.60
84176;DHT22;74306;40.114;18.304;2024-02-04T11:46:28;28.70;28.70
84176;DHT22;74306;40.114;18.304;2024-02-04T11:49:00;28.80;28.40
84176;DHT22;74306;40.114;18.304;2024-02-04T11:51:30;29.40;27.80
84176;DHT22;74306;40.114;18.304;2024-02-04T11:53:59;29.80;26.80
84176;DHT22;74306;40.114;18.304;2024-02-04T11:56:32;28.90;27.70
84176;DHT22;74306;40.114;18.304;2024-02-04T11:59:05;27.20;29.40
84176;DHT22;74306;40.114;18.304;2024-02-04T12:01:38;27.40;29.50
84176;DHT22;74306;40.114;18.304;2024-02-04T12:04:12;28.30;28.60
84176;DHT22;74306;40.114;18.304;2024-02-04T12:06:42;29.00;28.20
84176;DHT22;74306;40.114;18.304;2024-02-04T12:09:11;29.30;27.50
84176;DHT22;74306;40.114;18.304;2024-02-04T12:11:42;29.40;26.70
84176;DHT22;74306;40.114;18.304;2024-02-04T12:14:13;29.40;27.00
84176;DHT22;74306;40.114;18.304;2024-02-04T12:16:43;29.90;26.60
84176;DHT22;74306;40.114;18.304;2024-02-04T12:19:13;30.20;26.00
84176;DHT22;74306;40.114;18.304;2024-02-04T12:21:42;30.40;25.90
84176;DHT22;74306;40.114;18.304;2024-02-04T12:24:12;30.80;25.70
84176;DHT22;74306;40.114;18.304;2024-02-04T12:26:41;31.10;25.50
84176;DHT22;74306;40.114;18.304;2024-02-04T12:29:14;30.40;25.90
84176;DHT22;74306;40.114;18.304;2024-02-04T12:31:43;29.80;26.40
84176;DHT22;74306;40.114;18.304;2024-02-04T12:34:13;28.90;27.00
84176;DHT22;74306;40.114;18.304;2024-02-04T12:36:42;27.70;28.80
84176;DHT22;74306;40.114;18.304;2024-02-04T12:39:13;27.60;29.10
84176;DHT22;74306;40.114;18.304;2024-02-04T12:41:43;27.50;29.40
84176;DHT22;74306;40.114;18.304;2024-02-04T12:44:21;26.90;30.00
84176;DHT22;74306;40.114;18.304;2024-02-04T12:46:52;26.80;30.70
84176;DHT22;74306;40.114;18.304;2024-02-04T12:49:22;26.50;30.10
84176;DHT22;74306;40.114;18.304;2024-02-04T12:51:51;26.10;30.20
84176;DHT22;74306;40.114;18.304;2024-02-04T12:54:23;26.00;30.40
84176;DHT22;74306;40.114;18.304;2024-02-04T12:56:53;26.30;30.60
84176;DHT22;74306;40.114;18.304;2024-02-04T12:59:28;27.00;29.70
84176;DHT22;74306;40.114;18.304;2024-02-04T13:01:59;26.80;29.30
84176;DHT22;74306;40.114;18.304;2024-02-04T13:04:34;27.20;28.30
84176;DHT22;74306;40.114;18.304;2024-02-04T13:07:07;27.80;28.40
84176;DHT22;74306;40.114;18.304;2024-02-04T13:09:37;28.40;27.40
84176;DHT22;74306;40.114;18.304;2024-02-04T13:12:08;28.40;27.20
84176;DHT22;74306;40.114;18.304;2024-02-04T13:14:39;28.50;27.20
84176;DHT22;74306;40.114;18.304;2024-02-04T13:17:10;27.50;27.20
84176;DHT22;74306;40.114;18.304;2024-02-04T13:19:39;28.20;26.60
84176;DHT22;74306;40.114;18.304;2024-02-04T13:22:10;28.70;26.30
84176;DHT22;74306;40.114;18.304;2024-02-04T13:24:41;28.80;25.50
84176;DHT22;74306;40.114;18.304;2024-02-04T13:27:11;27.70;26.20
84176;DHT22;74306;40.114;18.304;2024-02-04T13:29:42;26.90;27.00
84176;DHT22;74306;40.114;18.304;2024-02-04T13:32:11;27.00;27.20
84176;DHT22;74306;40.114;18.304;2024-02-04T13:34:40;27.60;27.10
84176;DHT22;74306;40.114;18.304;2024-02-04T13:37:10;27.60;27.30
84176;DHT22;74306;40.114;18.304;2024-02-04T13:39:39;27.30;27.40
84176;DHT22;74306;40.114;18.304;2024-02-04T13:42:08;27.70;26.60
84176;DHT22;74306;40.114;18.304;2024-02-04T13:44:38;27.60;26.30
84176;DHT22;74306;40.114;18.304;2024-02-04T13:47:08;27.00;27.00
84176;DHT22;74306;40.114;18.304;2024-02-04T13:49:38;27.30;26.90
84176;DHT22;74306;40.114;18.304;2024-02-04T13:52:08;27.60;26.60
84176;DHT22;74306;40.114;18.304;2024-02-04T13:54:37;27.40;27.00
84176;DHT22;74306;40.114;18.304;2024-02-04T13:57:06;26.80;27.60
84176;DHT22;74306;40.114;18.304;2024-02-04T13:59:36;27.10;28.00
84176;DHT22;74306;40.114;18.304;2024-02-04T14:02:05;27.50;28.00
84176;DHT22;74306;40.114;18.304;2024-02-04T14:04:37;27.90;27.50
84176;DHT22;74306;40.114;18.304;2024-02-04T14:07:08;27.20;26.80
84176;DHT22;74306;40.114;18.304;2024-02-04T14:09:38;26.10;27.90
84176;DHT22;74306;40.114;18.304;2024-02-04T14:12:07;25.00;29.10
84176;DHT22;74306;40.114;18.304;2024-02-04T14:14:37;24.20;30.60
84176;DHT22;74306;40.114;18.304;2024-02-04T14:17:06;23.20;31.70
84176;DHT22;74306;40.114;18.304;2024-02-04T14:19:37;22.30;33.30
84176;DHT22;74306;40.114;18.304;2024-02-04T14:22:07;21.50;34.50
84176;DHT22;74306;40.114;18.304;2024-02-04T14:24:37;21.00;35.00
84176;DHT22;74306;40.114;18.304;2024-02-04T14:27:07;20.70;35.50
84176;DHT22;74306;40.114;18.304;2024-02-04T14:29:37;20.30;37.10
84176;DHT22;74306;40.114;18.304;2024-02-04T14:32:07;20.00;37.30
84176;DHT22;74306;40.114;18.304;2024-02-04T14:34:38;19.70;37.60
84176;DHT22;74306;40.114;18.304;2024-02-04T14:37:08;19.60;38.00
84176;DHT22;74306;40.114;18.304;2024-02-04T14:39:43;19.40;38.30
84176;DHT22;74306;40.114;18.304;2024-02-04T14:42:13;19.00;38.90
84176;DHT22;74306;40.114;18.304;2024-02-04T14:44:42;19.00;39.50
84176;DHT22;74306;40.114;18.304;2024-02-04T14:47:12;19.00;39.60
84176;DHT22;74306;40.114;18.304;2024-02-04T14:49:43;19.00;40.60
84176;DHT22;74306;40.114;18.304;2024-02-04T14:52:12;18.90;40.20
84176;DHT22;74306;40.114;18.304;2024-02-04T14:54:42;18.70;40.00
84176;DHT22;74306;40.114;18.304;2024-02-04T14:57:11;18.70;40.10
84176;DHT22;74306;40.114;18.304;2024-02-04T14:59:41;18.70;40.10
84176;DHT22;74306;40.114;18.304;2024-02-04T15:02:11;18.80;40.10
84176;DHT22;74306;40.114;18.304;2024-02-04T15:04:41;18.70;40.50
84176;DHT22;74306;40.114;18.304;2024-02-04T15:07:11;18.70;41.00
84176;DHT22;74306;40.114;18.304;2024-02-04T15:09:43;18.50;40.80
84176;DHT22;74306;40.114;18.304;2024-02-04T15:12:13;18.40;41.00
84176;DHT22;74306;40.114;18.304;2024-02-04T15:14:43;18.30;41.90
84176;DHT22;74306;40.114;18.304;2024-02-04T15:17:13;18.20;42.30
84176;DHT22;74306;40.114;18.304;2024-02-04T15:19:44;18.00;42.60
84176;DHT22;74306;40.114;18.304;2024-02-04T15:22:15;17.80;43.70
84176;DHT22;74306;40.114;18.304;2024-02-04T15:24:45;17.80;46.20
84176;DHT22;74306;40.114;18.304;2024-02-04T15:27:17;17.60;50.00
84176;DHT22;74306;40.114;18.304;2024-02-04T15:29:48;17.30;53.40
84176;DHT22;74306;40.114;18.304;2024-02-04T15:32:18;17.20;55.90
84176;DHT22;74306;40.114;18.304;2024-02-04T15:34:50;17.00;58.80
84176;DHT22;74306;40.114;18.304;2024-02-04T15:37:20;16.90;59.70
84176;DHT22;74306;40.114;18.304;2024-02-04T15:39:50;16.80;60.90
84176;DHT22;74306;40.114;18.304;2024-02-04T15:42:20;16.70;61.70